sensor_id;sensor_type;location;lat;lon;timestamp;P1;durP1;ratioP1;P2;durP2;ratioP2
39846;SDS011;25517;52.422;10.782;2023-05-16T00:00:02;13.32;;;10.13;;
39846;SDS011;25517;52.422;10.782;2023-05-16T00:02:31;15.60;;;10.30;;
39846;SDS011;25517;52.422;10.782;2023-05-16T00:04:56;15.43;;;10.93;;
39846;SDS011;25517;52.422;10.782;2023-05-16T00:07:22;15.77;;;10.35;;
39846;SDS011;25517;52.422;10.782;2023-05-16T00:09:47;17.30;;;10.55;;
39846;SDS011;25517;52.422;10.782;2023-05-16T00:12:13;16.92;;;9.95;;
39846;SDS011;25517;52.422;10.782;2023-05-16T00:14:39;13.68;;;9.60;;
39846;SDS011;25517;52.422;10.782;2023-05-16T00:17:04;19.63;;;9.40;;
39846;SDS011;25517;52.422;10.782;2023-05-16T00:19:35;13.85;;;9.20;;
39846;SDS011;25517;52.422;10.782;2023-05-16T00:22:03;12.95;;;8.38;;
39846;SDS011;25517;52.422;10.782;2023-05-16T00:24:29;14.25;;;7.40;;
39846;SDS011;25517;52.422;10.782;2023-05-16T00:26:55;10.35;;;7.00;;
39846;SDS011;25517;52.422;10.782;2023-05-16T00:29:20;16.02;;;7.00;;
39846;SDS011;25517;52.422;10.782;2023-05-16T00:31:48;10.80;;;6.28;;
39846;SDS011;25517;52.422;10.782;2023-05-16T00:34:14;13.40;;;7.60;;
39846;SDS011;25517;52.422;10.782;2023-05-16T00:36:40;12.02;;;7.03;;
39846;SDS011;25517;52.422;10.782;2023-05-16T00:39:05;14.63;;;5.65;;
39846;SDS011;25517;52.422;10.782;2023-05-16T00:41:32;10.43;;;5.88;;
39846;SDS011;25517;52.422;10.782;2023-05-16T00:43:58;12.52;;;5.53;;
39846;SDS011;25517;52.422;10.782;2023-05-16T00:46:24;8.63;;;5.10;;
39846;SDS011;25517;52.422;10.782;2023-05-16T00:48:50;10.93;;;5.72;;
39846;SDS011;25517;52.422;10.782;2023-05-16T00:51:16;9.75;;;5.45;;
39846;SDS011;25517;52.422;10.782;2023-05-16T00:53:42;6.78;;;4.75;;
39846;SDS011;25517;52.422;10.782;2023-05-16T00:56:08;8.63;;;4.38;;
39846;SDS011;25517;52.422;10.782;2023-05-16T00:58:35;8.13;;;5.35;;
39846;SDS011;25517;52.422;10.782;2023-05-16T01:01:01;11.27;;;4.55;;
39846;SDS011;25517;52.422;10.782;2023-05-16T01:03:30;8.95;;;4.95;;
39846;SDS011;25517;52.422;10.782;2023-05-16T01:05:56;10.15;;;5.07;;
39846;SDS011;25517;52.422;10.782;2023-05-16T01:08:22;8.70;;;4.70;;
39846;SDS011;25517;52.422;10.782;2023-05-16T01:13:44;10.00;;;4.63;;
39846;SDS011;25517;52.422;10.782;2023-05-16T01:16:35;10.00;;;4.38;;
39846;SDS011;25517;52.422;10.782;2023-05-16T01:22:05;6.40;;;4.32;;
39846;SDS011;25517;52.422;10.782;2023-05-16T01:27:29;6.10;;;3.70;;
39846;SDS011;25517;52.422;10.782;2023-05-16T01:29:56;7.88;;;3.85;;
39846;SDS011;25517;52.422;10.782;2023-05-16T01:32:21;7.43;;;4.65;;
39846;SDS011;25517;52.422;10.782;2023-05-16T01:34:49;6.65;;;4.15;;
39846;SDS011;25517;52.422;10.782;2023-05-16T01:37:20;9.95;;;4.22;;
39846;SDS011;25517;52.422;10.782;2023-05-16T01:40:35;11.10;;;4.60;;
39846;SDS011;25517;52.422;10.782;2023-05-16T01:43:10;6.68;;;3.60;;
39846;SDS011;25517;52.422;10.782;2023-05-16T01:45:42;5.80;;;4.07;;
39846;SDS011;25517;52.422;10.782;2023-05-16T01:48:19;7.47;;;4.18;;
39846;SDS011;25517;52.422;10.782;2023-05-16T01:50:49;6.35;;;3.95;;
39846;SDS011;25517;52.422;10.782;2023-05-16T01:53:26;9.75;;;3.90;;
39846;SDS011;25517;52.422;10.782;2023-05-16T01:56:00;4.80;;;3.90;;
39846;SDS011;25517;52.422;10.782;2023-05-16T01:58:28;5.63;;;4.00;;
39846;SDS011;25517;52.422;10.782;2023-05-16T02:01:03;4.77;;;3.97;;
39846;SDS011;25517;52.422;10.782;2023-05-16T02:03:30;4.70;;;3.67;;
39846;SDS011;25517;52.422;10.782;2023-05-16T02:05:56;8.43;;;3.80;;
39846;SDS011;25517;52.422;10.782;2023-05-16T02:08:22;7.28;;;3.63;;
39846;SDS011;25517;52.422;10.782;2023-05-16T02:10:49;10.18;;;3.75;;
39846;SDS011;25517;52.422;10.782;2023-05-16T02:13:15;7.30;;;3.45;;
39846;SDS011;25517;52.422;10.782;2023-05-16T02:15:41;6.68;;;3.70;;
39846;SDS011;25517;52.422;10.782;2023-05-16T02:18:07;8.50;;;3.75;;
39846;SDS011;25517;52.422;10.782;2023-05-16T02:20:33;6.20;;;3.33;;
39846;SDS011;25517;52.422;10.782;2023-05-16T02:22:59;7.88;;;3.55;;
39846;SDS011;25517;52.422;10.782;2023-05-16T02:25:27;6.80;;;3.70;;
39846;SDS011;25517;52.422;10.782;2023-05-16T02:27:52;9.52;;;3.65;;
39846;SDS011;25517;52.422;10.782;2023-05-16T02:30:18;6.88;;;3.55;;
39846;SDS011;25517;52.422;10.782;2023-05-16T02:32:43;8.45;;;4.05;;
39846;SDS011;25517;52.422;10.782;2023-05-16T02:35:09;6.95;;;3.60;;
39846;SDS011;25517;52.422;10.782;2023-05-16T02:37:36;6.68;;;3.83;;
39846;SDS011;25517;52.422;10.782;2023-05-16T02:40:02;9.27;;;4.03;;
39846;SDS011;25517;52.422;10.782;2023-05-16T02:42:32;6.17;;;3.57;;
39846;SDS011;25517;52.422;10.782;2023-05-16T02:44:58;6.63;;;3.65;;
39846;SDS011;25517;52.422;10.782;2023-05-16T02:47:23;9.80;;;3.55;;
39846;SDS011;25517;52.422;10.782;2023-05-16T02:49:49;11.45;;;3.85;;
39846;SDS011;25517;52.422;10.782;2023-05-16T02:52:16;10.25;;;4.28;;
39846;SDS011;25517;52.422;10.782;2023-05-16T02:54:43;7.40;;;3.35;;
39846;SDS011;25517;52.422;10.782;2023-05-16T02:57:08;10.68;;;3.90;;
39846;SDS011;25517;52.422;10.782;2023-05-16T02:59:34;10.50;;;3.70;;
39846;SDS011;25517;52.422;10.782;2023-05-16T03:02:00;7.47;;;3.42;;
39846;SDS011;25517;52.422;10.782;2023-05-16T03:04:26;7.70;;;3.28;;
39846;SDS011;25517;52.422;10.782;2023-05-16T03:06:52;8.85;;;3.63;;
39846;SDS011;25517;52.422;10.782;2023-05-16T03:09:18;6.85;;;4.32;;
39846;SDS011;25517;52.422;10.782;2023-05-16T03:11:44;7.22;;;2.95;;
39846;SDS011;25517;52.422;10.782;2023-05-16T03:14:10;7.60;;;3.45;;
39846;SDS011;25517;52.422;10.782;2023-05-16T03:16:36;6.95;;;3.05;;
39846;SDS011;25517;52.422;10.782;2023-05-16T03:19:02;7.28;;;3.03;;
39846;SDS011;25517;52.422;10.782;2023-05-16T03:21:28;6.57;;;3.83;;
39846;SDS011;25517;52.422;10.782;2023-05-16T03:23:55;11.85;;;3.53;;
39846;SDS011;25517;52.422;10.782;2023-05-16T03:26:22;7.28;;;3.05;;
39846;SDS011;25517;52.422;10.782;2023-05-16T03:28:51;4.97;;;2.80;;
39846;SDS011;25517;52.422;10.782;2023-05-16T03:31:17;8.25;;;3.85;;
39846;SDS011;25517;52.422;10.782;2023-05-16T03:33:43;6.50;;;2.70;;
39846;SDS011;25517;52.422;10.782;2023-05-16T03:36:09;8.10;;;3.22;;
39846;SDS011;25517;52.422;10.782;2023-05-16T03:38:35;5.72;;;3.03;;
39846;SDS011;25517;52.422;10.782;2023-05-16T03:41:05;7.43;;;3.75;;
39846;SDS011;25517;52.422;10.782;2023-05-16T03:43:30;8.07;;;3.42;;
39846;SDS011;25517;52.422;10.782;2023-05-16T03:45:56;4.72;;;2.58;;
39846;SDS011;25517;52.422;10.782;2023-05-16T03:48:22;5.35;;;2.55;;
39846;SDS011;25517;52.422;10.782;2023-05-16T03:50:47;5.65;;;2.65;;
39846;SDS011;25517;52.422;10.782;2023-05-16T03:53:13;7.00;;;2.80;;
39846;SDS011;25517;52.422;10.782;2023-05-16T03:55:42;4.00;;;2.65;;
39846;SDS011;25517;52.422;10.782;2023-05-16T03:58:08;7.10;;;2.88;;
39846;SDS011;25517;52.422;10.782;2023-05-16T04:00:34;6.80;;;3.45;;
39846;SDS011;25517;52.422;10.782;2023-05-16T04:03:00;4.43;;;2.42;;
39846;SDS011;25517;52.422;10.782;2023-05-16T04:05:32;9.95;;;2.72;;
39846;SDS011;25517;52.422;10.782;2023-05-16T04:07:58;7.22;;;2.58;;
39846;SDS011;25517;52.422;10.782;2023-05-16T04:10:24;7.35;;;2.33;;
39846;SDS011;25517;52.422;10.782;2023-05-16T04:12:52;6.03;;;3.13;;
39846;SDS011;25517;52.422;10.782;2023-05-16T04:15:18;5.65;;;2.83;;
39846;SDS011;25517;52.422;10.782;2023-05-16T04:17:45;7.07;;;2.88;;
39846;SDS011;25517;52.422;10.782;2023-05-16T04:20:16;8.18;;;3.22;;
39846;SDS011;25517;52.422;10.782;2023-05-16T04:22:42;7.72;;;2.80;;
39846;SDS011;25517;52.422;10.782;2023-05-16T04:25:08;4.88;;;2.70;;
39846;SDS011;25517;52.422;10.782;2023-05-16T04:27:35;11.55;;;3.03;;
39846;SDS011;25517;52.422;10.782;2023-05-16T04:30:01;7.32;;;2.85;;
39846;SDS011;25517;52.422;10.782;2023-05-16T04:32:26;7.07;;;2.60;;
39846;SDS011;25517;52.422;10.782;2023-05-16T04:34:52;5.97;;;2.97;;
39846;SDS011;25517;52.422;10.782;2023-05-16T04:37:18;8.32;;;3.05;;
39846;SDS011;25517;52.422;10.782;2023-05-16T04:39:44;8.98;;;3.22;;
39846;SDS011;25517;52.422;10.782;2023-05-16T04:42:11;9.13;;;3.13;;
39846;SDS011;25517;52.422;10.782;2023-05-16T04:44:37;5.25;;;2.45;;
39846;SDS011;25517;52.422;10.782;2023-05-16T04:47:02;6.55;;;2.65;;
39846;SDS011;25517;52.422;10.782;2023-05-16T04:49:28;6.90;;;2.55;;
39846;SDS011;25517;52.422;10.782;2023-05-16T04:51:54;7.95;;;2.97;;
39846;SDS011;25517;52.422;10.782;2023-05-16T04:54:19;8.55;;;3.25;;
39846;SDS011;25517;52.422;10.782;2023-05-16T04:56:45;8.60;;;2.63;;
39846;SDS011;25517;52.422;10.782;2023-05-16T04:59:11;5.13;;;2.10;;
39846;SDS011;25517;52.422;10.782;2023-05-16T05:01:37;10.27;;;3.00;;
39846;SDS011;25517;52.422;10.782;2023-05-16T05:04:05;10.68;;;3.15;;
39846;SDS011;25517;52.422;10.782;2023-05-16T05:06:31;8.43;;;2.45;;
39846;SDS011;25517;52.422;10.782;2023-05-16T05:08:56;7.90;;;2.53;;
39846;SDS011;25517;52.422;10.782;2023-05-16T05:11:22;7.82;;;2.55;;
39846;SDS011;25517;52.422;10.782;2023-05-16T05:13:47;8.18;;;2.67;;
39846;SDS011;25517;52.422;10.782;2023-05-16T05:16:13;12.05;;;2.90;;
39846;SDS011;25517;52.422;10.782;2023-05-16T05:18:39;15.02;;;2.60;;
39846;SDS011;25517;52.422;10.782;2023-05-16T05:21:05;15.35;;;3.28;;
39846;SDS011;25517;52.422;10.782;2023-05-16T05:23:30;12.80;;;2.33;;
39846;SDS011;25517;52.422;10.782;2023-05-16T05:25:56;11.63;;;3.03;;
39846;SDS011;25517;52.422;10.782;2023-05-16T05:28:22;8.93;;;3.28;;
39846;SDS011;25517;52.422;10.782;2023-05-16T05:30:48;9.63;;;2.55;;
39846;SDS011;25517;52.422;10.782;2023-05-16T05:33:16;14.23;;;2.78;;
39846;SDS011;25517;52.422;10.782;2023-05-16T05:35:42;9.50;;;2.83;;
39846;SDS011;25517;52.422;10.782;2023-05-16T05:38:11;8.70;;;2.67;;
39846;SDS011;25517;52.422;10.782;2023-05-16T05:40:36;12.68;;;3.45;;
39846;SDS011;25517;52.422;10.782;2023-05-16T05:43:02;18.42;;;3.20;;
39846;SDS011;25517;52.422;10.782;2023-05-16T05:45:27;15.57;;;2.80;;
39846;SDS011;25517;52.422;10.782;2023-05-16T05:47:53;10.80;;;2.90;;
39846;SDS011;25517;52.422;10.782;2023-05-16T05:50:19;12.07;;;2.20;;
39846;SDS011;25517;52.422;10.782;2023-05-16T05:52:45;12.18;;;2.20;;
39846;SDS011;25517;52.422;10.782;2023-05-16T05:55:10;16.27;;;2.60;;
39846;SDS011;25517;52.422;10.782;2023-05-16T05:57:36;9.82;;;2.40;;
39846;SDS011;25517;52.422;10.782;2023-05-16T06:00:02;11.20;;;2.47;;
39846;SDS011;25517;52.422;10.782;2023-05-16T06:02:29;13.25;;;3.08;;
39846;SDS011;25517;52.422;10.782;2023-05-16T06:04:54;18.23;;;3.65;;
39846;SDS011;25517;52.422;10.782;2023-05-16T06:07:20;11.50;;;3.03;;
39846;SDS011;25517;52.422;10.782;2023-05-16T06:09:46;13.60;;;2.90;;
39846;SDS011;25517;52.422;10.782;2023-05-16T06:12:12;11.02;;;2.97;;
39846;SDS011;25517;52.422;10.782;2023-05-16T06:14:38;9.60;;;2.63;;
39846;SDS011;25517;52.422;10.782;2023-05-16T06:17:04;11.88;;;3.58;;
39846;SDS011;25517;52.422;10.782;2023-05-16T06:19:29;13.10;;;2.95;;
39846;SDS011;25517;52.422;10.782;2023-05-16T06:21:55;14.77;;;2.83;;
39846;SDS011;25517;52.422;10.782;2023-05-16T06:24:21;11.95;;;3.42;;
39846;SDS011;25517;52.422;10.782;2023-05-16T06:26:46;14.73;;;3.47;;
39846;SDS011;25517;52.422;10.782;2023-05-16T06:29:14;11.95;;;2.90;;
39846;SDS011;25517;52.422;10.782;2023-05-16T06:31:41;14.10;;;3.40;;
39846;SDS011;25517;52.422;10.782;2023-05-16T06:34:06;11.35;;;2.55;;
39846;SDS011;25517;52.422;10.782;2023-05-16T06:36:32;15.25;;;3.22;;
39846;SDS011;25517;52.422;10.782;2023-05-16T06:38:58;16.30;;;2.97;;
39846;SDS011;25517;52.422;10.782;2023-05-16T06:41:23;8.05;;;2.38;;
39846;SDS011;25517;52.422;10.782;2023-05-16T06:43:50;15.68;;;3.58;;
39846;SDS011;25517;52.422;10.782;2023-05-16T06:46:16;15.15;;;3.67;;
39846;SDS011;25517;52.422;10.782;2023-05-16T06:48:42;19.75;;;3.13;;
39846;SDS011;25517;52.422;10.782;2023-05-16T06:51:07;12.05;;;3.00;;
39846;SDS011;25517;52.422;10.782;2023-05-16T06:53:34;11.18;;;3.22;;
39846;SDS011;25517;52.422;10.782;2023-05-16T06:56:00;14.25;;;3.83;;
39846;SDS011;25517;52.422;10.782;2023-05-16T06:58:26;8.15;;;3.22;;
39846;SDS011;25517;52.422;10.782;2023-05-16T07:00:51;15.40;;;3.30;;
39846;SDS011;25517;52.422;10.782;2023-05-16T07:03:17;12.85;;;3.00;;
39846;SDS011;25517;52.422;10.782;2023-05-16T07:05:42;18.00;;;2.92;;
39846;SDS011;25517;52.422;10.782;2023-05-16T07:08:08;12.70;;;3.08;;
39846;SDS011;25517;52.422;10.782;2023-05-16T07:10:36;20.88;;;3.25;;
39846;SDS011;25517;52.422;10.782;2023-05-16T07:13:01;17.23;;;4.07;;
39846;SDS011;25517;52.422;10.782;2023-05-16T07:15:28;13.88;;;2.78;;
39846;SDS011;25517;52.422;10.782;2023-05-16T07:17:54;11.90;;;3.00;;
39846;SDS011;25517;52.422;10.782;2023-05-16T07:20:21;8.50;;;2.05;;
39846;SDS011;25517;52.422;10.782;2023-05-16T07:22:46;10.15;;;2.30;;
39846;SDS011;25517;52.422;10.782;2023-05-16T07:25:12;21.23;;;3.30;;
39846;SDS011;25517;52.422;10.782;2023-05-16T07:27:39;16.08;;;2.72;;
39846;SDS011;25517;52.422;10.782;2023-05-16T07:30:09;12.00;;;3.20;;
39846;SDS011;25517;52.422;10.782;2023-05-16T07:32:36;15.85;;;2.92;;
39846;SDS011;25517;52.422;10.782;2023-05-16T07:35:02;13.35;;;2.92;;
39846;SDS011;25517;52.422;10.782;2023-05-16T07:37:28;13.25;;;3.20;;
39846;SDS011;25517;52.422;10.782;2023-05-16T07:39:54;12.82;;;2.63;;
39846;SDS011;25517;52.422;10.782;2023-05-16T07:42:19;12.18;;;2.70;;
39846;SDS011;25517;52.422;10.782;2023-05-16T07:44:45;11.45;;;2.88;;
39846;SDS011;25517;52.422;10.782;2023-05-16T07:47:11;11.63;;;3.42;;
39846;SDS011;25517;52.422;10.782;2023-05-16T07:49:37;11.00;;;2.75;;
39846;SDS011;25517;52.422;10.782;2023-05-16T07:52:02;21.00;;;2.92;;
39846;SDS011;25517;52.422;10.782;2023-05-16T07:54:28;8.13;;;2.60;;
39846;SDS011;25517;52.422;10.782;2023-05-16T07:56:54;11.10;;;2.55;;
39846;SDS011;25517;52.422;10.782;2023-05-16T07:59:20;10.07;;;2.28;;
39846;SDS011;25517;52.422;10.782;2023-05-16T08:01:46;11.07;;;2.88;;
39846;SDS011;25517;52.422;10.782;2023-05-16T08:04:12;10.68;;;2.13;;
39846;SDS011;25517;52.422;10.782;2023-05-16T08:06:38;14.60;;;2.90;;
39846;SDS011;25517;52.422;10.782;2023-05-16T08:09:03;17.70;;;3.47;;
39846;SDS011;25517;52.422;10.782;2023-05-16T08:11:29;13.73;;;2.92;;
39846;SDS011;25517;52.422;10.782;2023-05-16T08:13:55;16.70;;;3.47;;
39846;SDS011;25517;52.422;10.782;2023-05-16T08:16:21;16.17;;;3.28;;
39846;SDS011;25517;52.422;10.782;2023-05-16T08:18:49;16.77;;;2.78;;
39846;SDS011;25517;52.422;10.782;2023-05-16T08:21:15;15.60;;;3.42;;
39846;SDS011;25517;52.422;10.782;2023-05-16T08:23:43;11.82;;;2.67;;
39846;SDS011;25517;52.422;10.782;2023-05-16T08:26:09;12.48;;;2.65;;
39846;SDS011;25517;52.422;10.782;2023-05-16T08:28:35;13.43;;;3.20;;
39846;SDS011;25517;52.422;10.782;2023-05-16T08:31:01;13.48;;;3.58;;
39846;SDS011;25517;52.422;10.782;2023-05-16T08:33:26;13.15;;;3.35;;
39846;SDS011;25517;52.422;10.782;2023-05-16T08:35:52;11.10;;;2.85;;
39846;SDS011;25517;52.422;10.782;2023-05-16T08:38:18;22.48;;;3.38;;
39846;SDS011;25517;52.422;10.782;2023-05-16T08:40:44;9.95;;;2.72;;
39846;SDS011;25517;52.422;10.782;2023-05-16T08:43:10;10.88;;;3.00;;
39846;SDS011;25517;52.422;10.782;2023-05-16T08:45:36;10.98;;;2.88;;
39846;SDS011;25517;52.422;10.782;2023-05-16T08:48:02;9.30;;;2.33;;
39846;SDS011;25517;52.422;10.782;2023-05-16T08:50:30;8.68;;;2.42;;
39846;SDS011;25517;52.422;10.782;2023-05-16T08:52:56;8.48;;;2.60;;
39846;SDS011;25517;52.422;10.782;2023-05-16T08:55:29;12.20;;;2.17;;
39846;SDS011;25517;52.422;10.782;2023-05-16T08:57:55;10.65;;;2.72;;
39846;SDS011;25517;52.422;10.782;2023-05-16T09:00:21;9.57;;;2.40;;
39846;SDS011;25517;52.422;10.782;2023-05-16T09:02:48;7.57;;;2.30;;
39846;SDS011;25517;52.422;10.782;2023-05-16T09:05:14;14.15;;;2.80;;
39846;SDS011;25517;52.422;10.782;2023-05-16T09:07:42;14.23;;;2.60;;
39846;SDS011;25517;52.422;10.782;2023-05-16T09:10:08;8.77;;;2.72;;
39846;SDS011;25517;52.422;10.782;2023-05-16T09:12:35;11.82;;;2.00;;
39846;SDS011;25517;52.422;10.782;2023-05-16T09:15:01;7.95;;;2.10;;
39846;SDS011;25517;52.422;10.782;2023-05-16T09:17:39;8.38;;;2.22;;
39846;SDS011;25517;52.422;10.782;2023-05-16T09:20:11;9.30;;;2.40;;
39846;SDS011;25517;52.422;10.782;2023-05-16T09:25:04;9.63;;;2.00;;
39846;SDS011;25517;52.422;10.782;2023-05-16T09:27:30;13.25;;;2.75;;
39846;SDS011;25517;52.422;10.782;2023-05-16T09:29:56;9.27;;;2.20;;
39846;SDS011;25517;52.422;10.782;2023-05-16T09:32:23;6.85;;;2.05;;
39846;SDS011;25517;52.422;10.782;2023-05-16T09:34:51;8.63;;;2.13;;
39846;SDS011;25517;52.422;10.782;2023-05-16T09:37:17;8.82;;;2.30;;
39846;SDS011;25517;52.422;10.782;2023-05-16T09:39:47;8.70;;;2.30;;
39846;SDS011;25517;52.422;10.782;2023-05-16T09:42:14;10.25;;;2.60;;
39846;SDS011;25517;52.422;10.782;2023-05-16T09:44:41;9.60;;;2.08;;
39846;SDS011;25517;52.422;10.782;2023-05-16T09:47:13;11.65;;;1.83;;
39846;SDS011;25517;52.422;10.782;2023-05-16T09:49:40;9.10;;;2.67;;
39846;SDS011;25517;52.422;10.782;2023-05-16T09:52:06;6.97;;;2.50;;
39846;SDS011;25517;52.422;10.782;2023-05-16T09:54:32;7.95;;;2.13;;
39846;SDS011;25517;52.422;10.782;2023-05-16T09:56:58;5.40;;;2.30;;
39846;SDS011;25517;52.422;10.782;2023-05-16T09:59:28;8.02;;;2.50;;
39846;SDS011;25517;52.422;10.782;2023-05-16T10:01:56;8.43;;;2.50;;
39846;SDS011;25517;52.422;10.782;2023-05-16T10:04:25;7.70;;;2.35;;
39846;SDS011;25517;52.422;10.782;2023-05-16T10:06:52;7.22;;;1.80;;
39846;SDS011;25517;52.422;10.782;2023-05-16T10:09:20;9.30;;;2.10;;
39846;SDS011;25517;52.422;10.782;2023-05-16T10:11:47;7.63;;;2.40;;
39846;SDS011;25517;52.422;10.782;2023-05-16T10:14:14;5.95;;;1.60;;
39846;SDS011;25517;52.422;10.782;2023-05-16T10:16:42;6.00;;;2.22;;
39846;SDS011;25517;52.422;10.782;2023-05-16T10:19:10;10.43;;;1.95;;
39846;SDS011;25517;52.422;10.782;2023-05-16T10:21:36;7.18;;;2.05;;
39846;SDS011;25517;52.422;10.782;2023-05-16T10:24:05;8.68;;;1.77;;
39846;SDS011;25517;52.422;10.782;2023-05-16T10:26:35;6.85;;;1.92;;
39846;SDS011;25517;52.422;10.782;2023-05-16T10:29:01;7.50;;;1.85;;
39846;SDS011;25517;52.422;10.782;2023-05-16T10:31:27;5.70;;;1.60;;
39846;SDS011;25517;52.422;10.782;2023-05-16T10:33:54;5.57;;;1.58;;
39846;SDS011;25517;52.422;10.782;2023-05-16T10:36:21;4.68;;;1.45;;
39846;SDS011;25517;52.422;10.782;2023-05-16T10:38:47;5.70;;;2.05;;
39846;SDS011;25517;52.422;10.782;2023-05-16T10:41:13;5.25;;;1.55;;
39846;SDS011;25517;52.422;10.782;2023-05-16T10:43:39;7.50;;;1.67;;
39846;SDS011;25517;52.422;10.782;2023-05-16T10:46:09;5.80;;;1.40;;
39846;SDS011;25517;52.422;10.782;2023-05-16T10:48:36;4.55;;;1.65;;
39846;SDS011;25517;52.422;10.782;2023-05-16T10:54:03;6.45;;;1.42;;
39846;SDS011;25517;52.422;10.782;2023-05-16T10:56:32;11.10;;;1.77;;
39846;SDS011;25517;52.422;10.782;2023-05-16T10:58:58;4.20;;;1.50;;
39846;SDS011;25517;52.422;10.782;2023-05-16T11:06:42;3.35;;;1.20;;
39846;SDS011;25517;52.422;10.782;2023-05-16T11:14:16;3.80;;;1.35;;
39846;SDS011;25517;52.422;10.782;2023-05-16T11:16:58;6.55;;;1.80;;
39846;SDS011;25517;52.422;10.782;2023-05-16T11:19:38;7.43;;;1.52;;
39846;SDS011;25517;52.422;10.782;2023-05-16T11:24:53;10.27;;;1.80;;
39846;SDS011;25517;52.422;10.782;2023-05-16T11:27:36;6.60;;;1.67;;
39846;SDS011;25517;52.422;10.782;2023-05-16T11:32:35;5.10;;;1.65;;
39846;SDS011;25517;52.422;10.782;2023-05-16T11:35:01;7.20;;;1.88;;
39846;SDS011;25517;52.422;10.782;2023-05-16T11:37:28;4.28;;;1.65;;
39846;SDS011;25517;52.422;10.782;2023-05-16T11:39:58;7.10;;;1.70;;
39846;SDS011;25517;52.422;10.782;2023-05-16T11:42:32;6.65;;;1.92;;
39846;SDS011;25517;52.422;10.782;2023-05-16T11:45:06;7.18;;;2.00;;
39846;SDS011;25517;52.422;10.782;2023-05-16T11:47:32;5.57;;;1.45;;
39846;SDS011;25517;52.422;10.782;2023-05-16T11:50:02;6.78;;;1.50;;
39846;SDS011;25517;52.422;10.782;2023-05-16T11:52:33;3.53;;;1.40;;
39846;SDS011;25517;52.422;10.782;2023-05-16T11:54:59;4.05;;;1.38;;
39846;SDS011;25517;52.422;10.782;2023-05-16T11:57:25;3.75;;;1.17;;
39846;SDS011;25517;52.422;10.782;2023-05-16T11:59:52;4.20;;;1.20;;
39846;SDS011;25517;52.422;10.782;2023-05-16T12:02:18;5.32;;;1.30;;
39846;SDS011;25517;52.422;10.782;2023-05-16T12:04:47;6.07;;;1.58;;
39846;SDS011;25517;52.422;10.782;2023-05-16T12:07:14;3.70;;;1.48;;
39846;SDS011;25517;52.422;10.782;2023-05-16T12:09:40;3.92;;;1.40;;
39846;SDS011;25517;52.422;10.782;2023-05-16T12:12:05;5.20;;;1.33;;
39846;SDS011;25517;52.422;10.782;2023-05-16T12:14:31;5.88;;;1.75;;
39846;SDS011;25517;52.422;10.782;2023-05-16T12:16:57;7.38;;;1.85;;
39846;SDS011;25517;52.422;10.782;2023-05-16T12:19:23;6.80;;;1.80;;
39846;SDS011;25517;52.422;10.782;2023-05-16T12:21:52;7.80;;;1.67;;
39846;SDS011;25517;52.422;10.782;2023-05-16T12:24:18;5.43;;;1.50;;
39846;SDS011;25517;52.422;10.782;2023-05-16T12:26:44;5.90;;;1.23;;
39846;SDS011;25517;52.422;10.782;2023-05-16T12:29:10;5.57;;;1.73;;
39846;SDS011;25517;52.422;10.782;2023-05-16T12:31:37;7.25;;;1.55;;
39846;SDS011;25517;52.422;10.782;2023-05-16T12:34:04;4.68;;;1.30;;
39846;SDS011;25517;52.422;10.782;2023-05-16T12:36:38;7.43;;;1.52;;
39846;SDS011;25517;52.422;10.782;2023-05-16T12:39:04;7.32;;;1.40;;
39846;SDS011;25517;52.422;10.782;2023-05-16T12:41:29;6.80;;;1.60;;
39846;SDS011;25517;52.422;10.782;2023-05-16T12:44:05;9.48;;;1.70;;
39846;SDS011;25517;52.422;10.782;2023-05-16T12:46:39;6.90;;;1.73;;
39846;SDS011;25517;52.422;10.782;2023-05-16T12:49:06;3.85;;;1.27;;
39846;SDS011;25517;52.422;10.782;2023-05-16T12:51:32;6.63;;;1.58;;
39846;SDS011;25517;52.422;10.782;2023-05-16T12:54:05;5.25;;;1.58;;
39846;SDS011;25517;52.422;10.782;2023-05-16T12:56:32;7.38;;;1.70;;
39846;SDS011;25517;52.422;10.782;2023-05-16T12:58:59;5.63;;;1.90;;
39846;SDS011;25517;52.422;10.782;2023-05-16T13:01:24;7.35;;;1.83;;
39846;SDS011;25517;52.422;10.782;2023-05-16T13:03:50;4.68;;;1.85;;
39846;SDS011;25517;52.422;10.782;2023-05-16T13:06:15;6.65;;;1.60;;
39846;SDS011;25517;52.422;10.782;2023-05-16T13:08:41;4.35;;;1.63;;
39846;SDS011;25517;52.422;10.782;2023-05-16T13:11:06;6.47;;;1.60;;
39846;SDS011;25517;52.422;10.782;2023-05-16T13:13:32;8.38;;;1.75;;
39846;SDS011;25517;52.422;10.782;2023-05-16T13:15:58;3.38;;;1.27;;
39846;SDS011;25517;52.422;10.782;2023-05-16T13:18:23;6.82;;;2.17;;
39846;SDS011;25517;52.422;10.782;2023-05-16T13:20:49;9.35;;;1.60;;
39846;SDS011;25517;52.422;10.782;2023-05-16T13:23:14;5.88;;;1.75;;
39846;SDS011;25517;52.422;10.782;2023-05-16T13:25:40;4.38;;;1.10;;
39846;SDS011;25517;52.422;10.782;2023-05-16T13:28:06;7.35;;;1.88;;
39846;SDS011;25517;52.422;10.782;2023-05-16T13:30:31;6.78;;;2.25;;
39846;SDS011;25517;52.422;10.782;2023-05-16T13:32:57;10.27;;;1.85;;
39846;SDS011;25517;52.422;10.782;2023-05-16T13:35:22;6.13;;;1.67;;
39846;SDS011;25517;52.422;10.782;2023-05-16T13:37:48;11.25;;;3.17;;
39846;SDS011;25517;52.422;10.782;2023-05-16T13:40:14;9.77;;;2.13;;
39846;SDS011;25517;52.422;10.782;2023-05-16T13:42:40;8.38;;;1.88;;
39846;SDS011;25517;52.422;10.782;2023-05-16T13:45:05;9.98;;;1.55;;
39846;SDS011;25517;52.422;10.782;2023-05-16T13:47:31;5.53;;;1.73;;
39846;SDS011;25517;52.422;10.782;2023-05-16T13:49:57;9.15;;;2.13;;
39846;SDS011;25517;52.422;10.782;2023-05-16T13:52:30;5.00;;;1.70;;
39846;SDS011;25517;52.422;10.782;2023-05-16T13:54:56;4.93;;;1.90;;
39846;SDS011;25517;52.422;10.782;2023-05-16T13:57:21;4.70;;;1.90;;
39846;SDS011;25517;52.422;10.782;2023-05-16T13:59:47;9.77;;;1.67;;
39846;SDS011;25517;52.422;10.782;2023-05-16T14:02:13;7.65;;;2.05;;
39846;SDS011;25517;52.422;10.782;2023-05-16T14:04:42;6.32;;;2.05;;
39846;SDS011;25517;52.422;10.782;2023-05-16T14:07:07;6.55;;;1.50;;
39846;SDS011;25517;52.422;10.782;2023-05-16T14:09:33;6.88;;;1.65;;
39846;SDS011;25517;52.422;10.782;2023-05-16T14:12:05;4.32;;;1.30;;
39846;SDS011;25517;52.422;10.782;2023-05-16T14:14:32;7.78;;;1.40;;
39846;SDS011;25517;52.422;10.782;2023-05-16T14:16:58;8.82;;;1.45;;
39846;SDS011;25517;52.422;10.782;2023-05-16T14:19:24;3.58;;;1.33;;
39846;SDS011;25517;52.422;10.782;2023-05-16T14:21:53;2.60;;;1.08;;
39846;SDS011;25517;52.422;10.782;2023-05-16T14:24:19;4.80;;;1.38;;
39846;SDS011;25517;52.422;10.782;2023-05-16T14:26:45;2.80;;;1.30;;
39846;SDS011;25517;52.422;10.782;2023-05-16T14:29:11;1.48;;;1.00;;
39846;SDS011;25517;52.422;10.782;2023-05-16T14:31:37;5.35;;;1.52;;
39846;SDS011;25517;52.422;10.782;2023-05-16T14:34:04;3.83;;;1.73;;
39846;SDS011;25517;52.422;10.782;2023-05-16T14:36:30;6.18;;;1.20;;
39846;SDS011;25517;52.422;10.782;2023-05-16T14:38:56;4.22;;;0.98;;
39846;SDS011;25517;52.422;10.782;2023-05-16T14:41:22;2.45;;;0.90;;
39846;SDS011;25517;52.422;10.782;2023-05-16T14:43:48;2.63;;;1.20;;
39846;SDS011;25517;52.422;10.782;2023-05-16T14:46:14;2.83;;;1.33;;
39846;SDS011;25517;52.422;10.782;2023-05-16T14:48:39;4.28;;;1.75;;
39846;SDS011;25517;52.422;10.782;2023-05-16T14:51:05;2.63;;;1.50;;
39846;SDS011;25517;52.422;10.782;2023-05-16T14:53:31;5.93;;;1.83;;
39846;SDS011;25517;52.422;10.782;2023-05-16T14:55:57;4.28;;;2.28;;
39846;SDS011;25517;52.422;10.782;2023-05-16T14:58:23;4.65;;;2.28;;